Moneymore, United Kingdom
Current Conditions -  °F | °C
As of 4:20 AM on Friday 19 Dec 2014 (Local Time) from EGAA Reporting Station
Broken Clouds Broken Clouds  
Wind Chill: 32°   Ceiling: 2500
Heat Index: 41°   Visibility: 6mi
Dew Point: 37°   Wind: 17mph
Humidity: 87%   Direction: 250°WSW
Pressure: 29.65"   Gusts: NA
Location:  54.69°N, 6.67°W
Report Text: EGAA 190420Z AUTO 25015KT 9999 FEW015/// SCT019/// BKN025/// 05/03 Q1004
Loading
Personal Weather Stations






























Interactive Weather Map New forecast layout! Learn more

10-Day Weather Forecast

Advertisements
Track Severe Weather on mobile